Evansport, OH (43519)

9:35 AM EST on December 03, 2016 (GMT -0500)
West Curtis Street | | Change Station

Elev 708 ft 41.50 °N, 84.43 °W | Updated 6 minutes ago

Overcast
Overcast
36.1 °F
Feels Like 36 °F
N
0.6
Wind Variable Wind from West
Gusts 3.7 mph

Today
High -- | Low -- °F
--% Chance of Precip.
Yesterday
High -- | Low -- °F
Precip. -- in
Pressure 30.36 in
Visibility 10.0 miles
Clouds Overcast 3400 ft
Windchill 36 °F
Dew Point 31 °F
Humidity 81%
Rainfall 0.00 in
Snow Depth Not available.
7:46 AM 5:08 PM
Waxing Crescent, 15% visible
METAR KDFI 031353Z AUTO 00000KT 10SM OVC034 03/M02 A3034 RMK AO2 SLP280 T00281022
Pressure 30.36 in
Visibility 10.0 miles
Clouds Overcast 3400 ft
Windchill 36 °F
Dew Point 31 °F
Humidity 81%
Rainfall 0.00 in
Snow Depth Not available.
7:46 AM 5:08 PM
Waxing Crescent, 15% visible
METAR KDFI 031353Z AUTO 00000KT 10SM OVC034 03/M02 A3034 RMK AO2 SLP280 T00281022

10-Day Weather Forecast

Almanac

Astronomy

Dec. 03, 2016 Rise Set
Actual Time
Civil Twilight
Nautical Twilight
Astronomical Twilight
Moon
Length of Visible Light
Length of Day
Tomorrow will be .
, % of the Moon is Illuminated

Today's Extremes

State Highs State Lows

Community

WunderPhotos

Upload Photos

1,955,446 photos uploaded!

WunderBlog® & News

Nearby

Air Quality

  Air Quality AQ Index Pollutant
Not available.

Snow Depth

Station Depth Elevation

Earthquake Activity

City Distance Mag. Time & Date
Minimum magnitude displayed is 2.5.

Coastal Water Temperatures

Place Temperature

Stations

Nearby Weather Stations

Station Location Temp. Windchill Dew Point Humidity Wind Precip. Elev Updated Type
                   

Watches & Warnings

There are currently no watches in effect.